createdAt,value
2018-05-06T00:01:39.823Z,26.80
2018-05-06T00:05:42.645Z,26.47
2018-05-06T00:09:45.380Z,22.50
2018-05-06T00:13:48.278Z,23.93
2018-05-06T00:17:51.016Z,22.20
2018-05-06T00:21:53.769Z,23.83
2018-05-06T00:25:57.597Z,22.33
2018-05-06T00:30:00.314Z,24.07
2018-05-06T00:34:03.305Z,23.70
2018-05-06T00:38:06.055Z,21.80
2018-05-06T00:42:08.864Z,18.83
2018-05-06T00:46:11.655Z,20.20
2018-05-06T00:50:14.403Z,20.73
2018-05-06T00:54:28.885Z,21.30
2018-05-06T00:58:31.625Z,20.03
2018-05-06T01:02:34.540Z,19.47
2018-05-06T01:06:38.090Z,24.90
2018-05-06T01:10:40.897Z,19.73
2018-05-06T01:14:43.675Z,19.60
2018-05-06T01:18:46.379Z,18.50
2018-05-06T01:22:49.125Z,18.63
2018-05-06T01:26:51.959Z,18.90
2018-05-06T01:30:54.771Z,18.77
2018-05-06T01:34:57.548Z,20.10
2018-05-06T01:39:00.333Z,21.33
2018-05-06T01:43:03.866Z,17.17
2018-05-06T01:47:06.750Z,19.70
2018-05-06T01:51:10.518Z,21.50
2018-05-06T01:55:14.239Z,21.60
2018-05-06T01:59:17.042Z,18.90
2018-05-06T02:03:19.933Z,18.50
2018-05-06T02:07:22.749Z,18.50
2018-05-06T02:11:25.728Z,20.50
2018-05-06T02:15:28.503Z,18.00
2018-05-06T02:19:31.323Z,19.77
2018-05-06T02:23:34.045Z,17.70
2018-05-06T02:27:37.032Z,18.97
2018-05-06T02:31:39.785Z,19.40
2018-05-06T02:35:43.678Z,18.27
2018-05-06T02:39:46.492Z,16.43
2018-05-06T02:43:50.017Z,21.20
2018-05-06T02:47:53.581Z,21.23
2018-05-06T02:51:56.320Z,17.60
2018-05-06T02:56:00.009Z,18.67
2018-05-06T03:00:02.866Z,19.63
2018-05-06T03:04:05.617Z,17.67
2018-05-06T03:08:08.575Z,19.30
2018-05-06T03:12:11.294Z,18.47
2018-05-06T03:16:14.411Z,18.43
2018-05-06T03:20:17.293Z,17.97
2018-05-06T03:24:20.004Z,16.97
2018-05-06T03:28:23.842Z,18.60
2018-05-06T03:32:26.565Z,18.23
2018-05-06T03:36:29.505Z,19.00
2018-05-06T03:40:32.378Z,16.30
2018-05-06T03:44:35.114Z,18.40
2018-05-06T03:48:38.047Z,20.03
2018-05-06T03:52:40.752Z,17.70
2018-05-06T03:57:04.873Z,18.53
2018-05-06T04:01:07.559Z,17.70
2018-05-06T04:05:11.157Z,17.57
2018-05-06T04:09:14.115Z,16.43
2018-05-06T04:13:18.630Z,16.57
2018-05-06T04:17:21.445Z,16.43
2018-05-06T04:21:24.291Z,17.57
2018-05-06T04:25:27.195Z,17.47
2018-05-06T04:29:29.997Z,16.87
2018-05-06T04:33:32.865Z,17.77
2018-05-06T04:37:35.628Z,16.67
2018-05-06T04:41:38.458Z,16.17
2018-05-06T04:45:41.218Z,18.00
2018-05-06T04:49:44.309Z,16.40
2018-05-06T04:53:47.039Z,15.77
2018-05-06T04:57:50.286Z,17.27
2018-05-06T05:01:53.134Z,18.27
2018-05-06T05:05:57.029Z,16.27
2018-05-06T05:10:00.144Z,15.83
2018-05-06T05:14:02.943Z,15.73
2018-05-06T05:18:05.915Z,16.90
2018-05-06T05:22:08.703Z,15.63
2018-05-06T05:26:11.725Z,15.80
2018-05-06T05:30:14.496Z,14.40
2018-05-06T05:34:18.021Z,15.30
2018-05-06T05:38:20.996Z,15.17
2018-05-06T05:42:23.924Z,16.63
2018-05-06T05:46:27.941Z,14.67
2018-05-06T05:50:31.737Z,17.00
2018-05-06T05:54:34.706Z,14.80
2018-05-06T05:58:37.632Z,13.83
2018-05-06T06:02:40.826Z,12.73
2018-05-06T06:06:48.464Z,13.63
2018-05-06T06:10:52.073Z,13.50
2018-05-06T06:14:55.208Z,11.80
2018-05-06T06:18:58.583Z,13.07
2018-05-06T06:23:01.491Z,11.90
2018-05-06T06:27:04.672Z,12.50
2018-05-06T06:31:07.613Z,11.90
2018-05-06T06:35:10.773Z,12.50
2018-05-06T06:39:14.497Z,14.23
2018-05-06T06:43:17.314Z,11.53
2018-05-06T06:47:20.231Z,12.37
2018-05-06T06:51:23.506Z,11.13
2018-05-06T06:55:28.249Z,12.20
2018-05-06T06:59:31.380Z,12.13
2018-05-06T07:03:34.300Z,11.53
2018-05-06T07:07:37.462Z,12.30
2018-05-06T07:11:40.603Z,10.93
2018-05-06T07:15:43.511Z,11.73
2018-05-06T07:19:46.371Z,11.60
2018-05-06T07:23:49.922Z,10.37
2018-05-06T07:27:53.074Z,11.63
2018-05-06T07:31:57.287Z,10.83
2018-05-06T07:36:00.241Z,12.20
2018-05-06T07:40:03.875Z,10.07
2018-05-06T07:44:06.747Z,9.97
2018-05-06T07:48:10.028Z,10.00
2018-05-06T07:52:12.845Z,10.23
2018-05-06T07:56:16.237Z,11.10
2018-05-06T08:00:20.138Z,8.97
2018-05-06T08:04:23.308Z,9.00
2018-05-06T08:08:26.183Z,10.37
2018-05-06T08:12:29.929Z,9.10
2018-05-06T08:16:32.919Z,8.60
2018-05-06T08:20:37.370Z,8.60
2018-05-06T08:24:40.393Z,7.20
2018-05-06T08:28:43.415Z,7.30
2018-05-06T08:32:46.326Z,7.63
2018-05-06T08:36:49.146Z,7.70
2018-05-06T08:40:52.489Z,7.00
2018-05-06T08:44:55.585Z,7.20
2018-05-06T08:48:58.416Z,8.03
2018-05-06T08:53:02.118Z,7.33
2018-05-06T08:57:05.333Z,6.80
2018-05-06T09:01:08.767Z,7.27
2018-05-06T09:05:11.729Z,6.53
2018-05-06T09:09:15.272Z,7.50
2018-05-06T09:13:19.107Z,7.43
2018-05-06T09:17:22.122Z,7.50
2018-05-06T09:21:26.694Z,7.13
2018-05-06T09:25:30.220Z,6.93
2018-05-06T09:29:33.474Z,7.10
2018-05-06T09:33:36.617Z,8.47
2018-05-06T09:37:39.673Z,7.68
2018-05-06T09:41:44.602Z,7.30
2018-05-06T09:46:08.929Z,6.13
2018-05-06T09:54:45.394Z,6.63
2018-05-06T09:58:48.288Z,6.87
2018-05-06T10:02:51.282Z,7.23
2018-05-06T10:06:57.480Z,7.50
2018-05-06T10:11:00.640Z,7.03
2018-05-06T10:15:03.811Z,6.93
2018-05-06T10:19:06.817Z,6.30
2018-05-06T10:23:10.137Z,6.80
2018-05-06T10:27:14.263Z,5.80
2018-05-06T10:31:18.311Z,5.70
2018-05-06T10:35:21.170Z,5.07
2018-05-06T10:39:24.014Z,6.60
2018-05-06T10:43:26.950Z,5.70
2018-05-06T10:47:30.134Z,5.50
2018-05-06T10:51:32.866Z,5.13
2018-05-06T10:55:35.889Z,7.27
2018-05-06T10:59:39.546Z,5.70
2018-05-06T11:03:43.286Z,5.93
2018-05-06T11:07:47.027Z,6.40
2018-05-06T11:11:49.805Z,5.80
2018-05-06T11:16:01.629Z,5.83
2018-05-06T11:20:05.291Z,6.27
2018-05-06T11:24:08.762Z,5.87
2018-05-06T11:28:11.636Z,5.68
2018-05-06T11:32:14.774Z,6.27
2018-05-06T11:36:17.575Z,5.70
2018-05-06T11:40:20.725Z,5.10
2018-05-06T11:44:24.377Z,5.80
2018-05-06T11:48:27.084Z,4.70
2018-05-06T11:52:30.765Z,4.62
2018-05-06T11:56:34.258Z,4.50
2018-05-06T12:00:37.105Z,4.60
2018-05-06T12:04:39.859Z,4.87
2018-05-06T12:08:43.359Z,4.37
2018-05-06T12:12:46.121Z,4.53
2018-05-06T12:16:48.877Z,4.87
2018-05-06T12:20:52.357Z,4.43
2018-05-06T12:24:55.094Z,4.77
2018-05-06T12:28:58.619Z,4.10
2018-05-06T12:33:01.344Z,3.80
2018-05-06T12:37:06.294Z,4.53
2018-05-06T12:41:09.167Z,4.63
2018-05-06T12:45:11.947Z,3.57
2018-05-06T12:49:15.469Z,4.03
2018-05-06T12:53:18.340Z,3.60
2018-05-06T12:57:21.086Z,2.80
2018-05-06T13:01:23.846Z,3.57
2018-05-06T13:05:27.349Z,3.77
2018-05-06T13:09:32.299Z,3.47
2018-05-06T13:13:36.525Z,3.30
2018-05-06T13:17:39.412Z,3.03
2018-05-06T13:21:42.127Z,2.93
2018-05-06T13:25:45.785Z,2.80
2018-05-06T13:29:48.712Z,3.47
2018-05-06T13:33:51.487Z,2.93
2018-05-06T13:37:54.353Z,3.33
2018-05-06T13:41:58.074Z,2.87
2018-05-06T13:46:01.196Z,3.77
2018-05-06T13:50:04.050Z,3.30
2018-05-06T13:54:07.057Z,3.20
2018-05-06T13:58:10.078Z,3.20
2018-05-06T14:02:13.219Z,3.57
2018-05-06T14:06:16.892Z,3.47
2018-05-06T14:10:21.018Z,2.57
2018-05-06T14:14:24.203Z,2.70
2018-05-06T14:18:27.144Z,3.27
2018-05-06T14:22:31.041Z,3.00
2018-05-06T14:26:33.881Z,3.30
2018-05-06T14:30:38.745Z,2.63
2018-05-06T14:34:41.778Z,2.90
2018-05-06T14:38:45.221Z,2.93
2018-05-06T14:42:48.435Z,3.60
2018-05-06T14:47:04.030Z,3.10
2018-05-06T14:51:06.977Z,3.23
2018-05-06T14:55:10.874Z,2.73
2018-05-06T14:59:13.595Z,3.30
2018-05-06T15:03:17.473Z,3.13
2018-05-06T15:07:20.236Z,2.90
2018-05-06T15:11:22.972Z,3.00
2018-05-06T15:15:26.781Z,2.53
2018-05-06T15:19:30.291Z,2.50
2018-05-06T15:23:34.277Z,3.37
2018-05-06T15:27:37.312Z,3.50
2018-05-06T15:31:40.115Z,3.70
2018-05-06T15:35:43.593Z,3.10
2018-05-06T15:39:46.315Z,2.90
2018-05-06T15:43:49.047Z,2.93
2018-05-06T15:47:52.007Z,3.17
2018-05-06T15:51:54.946Z,3.53
2018-05-06T15:55:57.730Z,3.00
2018-05-06T16:00:00.540Z,2.70
2018-05-06T16:04:15.449Z,2.97
2018-05-06T16:08:18.278Z,3.17
2018-05-06T16:12:21.506Z,2.80
2018-05-06T16:16:24.506Z,2.90
2018-05-06T16:20:28.082Z,3.00
2018-05-06T16:24:31.008Z,2.23
2018-05-06T16:28:33.701Z,2.43
2018-05-06T16:32:36.561Z,2.83
2018-05-06T16:36:39.280Z,3.20
2018-05-06T16:40:42.294Z,2.67
2018-05-06T16:44:45.021Z,2.90
2018-05-06T16:48:48.517Z,3.07
2018-05-06T16:52:51.257Z,2.63
2018-05-06T16:56:54.033Z,3.00
2018-05-06T17:00:57.515Z,2.80
2018-05-06T17:05:00.290Z,2.57
2018-05-06T17:09:03.177Z,3.90
2018-05-06T17:13:05.975Z,2.70
2018-05-06T17:17:08.717Z,3.30
2018-05-06T17:21:11.443Z,2.70
2018-05-06T17:25:15.303Z,3.07
2018-05-06T17:29:18.089Z,3.33
2018-05-06T17:33:20.903Z,3.50
2018-05-06T17:37:23.659Z,2.80
2018-05-06T17:41:27.217Z,3.20
2018-05-06T17:45:30.817Z,3.60
2018-05-06T17:49:33.602Z,3.70
2018-05-06T17:53:36.433Z,3.37
2018-05-06T17:57:40.230Z,3.60
2018-05-06T18:01:43.273Z,3.10
2018-05-06T18:05:46.419Z,3.80
2018-05-06T18:09:51.457Z,3.40
2018-05-06T18:13:55.248Z,3.93
2018-05-06T18:17:58.073Z,3.67
2018-05-06T18:22:01.695Z,3.53
2018-05-06T18:26:06.104Z,3.50
2018-05-06T18:30:09.154Z,3.57
2018-05-06T18:34:11.888Z,3.70
2018-05-06T18:38:14.778Z,4.00
2018-05-06T18:42:17.537Z,4.67
2018-05-06T18:46:20.616Z,3.67
2018-05-06T18:50:23.609Z,3.90
2018-05-06T18:54:26.520Z,4.53
2018-05-06T18:58:29.497Z,4.30
2018-05-06T19:02:32.267Z,4.10
2018-05-06T19:06:35.410Z,3.77
2018-05-06T19:10:38.103Z,4.10
2018-05-06T19:14:41.066Z,5.00
2018-05-06T19:18:43.869Z,4.77
2018-05-06T19:22:46.585Z,4.27
2018-05-06T19:26:49.344Z,6.00
2018-05-06T19:30:52.865Z,4.30
2018-05-06T19:34:55.696Z,4.27
2018-05-06T19:38:58.681Z,4.90
2018-05-06T19:43:01.382Z,4.80
2018-05-06T19:47:04.141Z,4.57
2018-05-06T19:51:07.762Z,4.80
2018-05-06T19:55:11.226Z,5.20
2018-05-06T19:59:13.973Z,4.77
2018-05-06T20:03:17.517Z,5.70
2018-05-06T20:07:20.433Z,5.50
2018-05-06T20:11:23.334Z,5.27
2018-05-06T20:15:26.756Z,5.27
2018-05-06T20:19:29.799Z,5.40
2018-05-06T20:23:33.348Z,5.33
2018-05-06T20:27:36.284Z,5.20
2018-05-06T20:31:39.946Z,5.90
2018-05-06T20:35:43.348Z,5.70
2018-05-06T20:39:46.998Z,6.67
2018-05-06T20:43:51.007Z,6.20
2018-05-06T20:47:53.753Z,5.67
2018-05-06T20:51:56.552Z,5.80
2018-05-06T20:55:59.419Z,5.77
2018-05-06T21:00:02.186Z,5.00
2018-05-06T21:04:05.706Z,5.00
2018-05-06T21:08:08.490Z,4.70
2018-05-06T21:12:12.021Z,5.00
2018-05-06T21:16:15.656Z,5.10
2018-05-06T21:20:18.485Z,5.90
2018-05-06T21:24:21.390Z,6.13
2018-05-06T21:28:24.220Z,4.83
2018-05-06T21:32:27.055Z,5.90
2018-05-06T21:36:29.780Z,5.57
2018-05-06T21:40:32.573Z,5.93
2018-05-06T21:44:35.435Z,5.40
2018-05-06T21:48:38.421Z,4.60
2018-05-06T21:52:41.910Z,4.50
2018-05-06T21:56:44.746Z,5.40
2018-05-06T22:00:48.249Z,5.30
2018-05-06T22:04:51.735Z,3.97
2018-05-06T22:08:55.326Z,5.47
2018-05-06T22:12:58.036Z,5.13
2018-05-06T22:17:00.742Z,5.60
2018-05-06T22:21:03.515Z,5.33
2018-05-06T22:25:06.276Z,5.90
2018-05-06T22:29:09.235Z,4.77
2018-05-06T22:33:11.984Z,5.67
2018-05-06T22:37:14.910Z,5.33
2018-05-06T22:41:17.624Z,5.20
2018-05-06T22:45:20.456Z,6.47
2018-05-06T22:49:23.256Z,5.70
2018-05-06T22:53:26.837Z,6.17
2018-05-06T22:57:29.706Z,4.73
2018-05-06T23:01:32.491Z,5.40
2018-05-06T23:05:35.402Z,5.00
2018-05-06T23:09:38.909Z,5.67
2018-05-06T23:13:41.638Z,5.70
2018-05-06T23:17:45.285Z,5.93
2018-05-06T23:21:48.100Z,5.97
2018-05-06T23:25:50.771Z,5.20
2018-05-06T23:29:53.547Z,7.33
2018-05-06T23:33:56.255Z,5.10
2018-05-06T23:37:58.964Z,5.63
2018-05-06T23:42:01.679Z,5.87
2018-05-06T23:46:05.159Z,5.03
2018-05-06T23:50:08.057Z,5.63
2018-05-06T23:54:10.785Z,5.60
2018-05-06T23:58:14.300Z,5.27
